createdAt,value
2023-04-24T06:54:12.576Z,3675
2023-04-24T06:59:46.577Z,3693
2023-04-24T07:05:21.747Z,3693
2023-04-24T07:10:57.910Z,3697.6
2023-04-24T07:16:35.207Z,3679.6
2023-04-24T07:22:10.474Z,3678.5
2023-04-24T07:27:46.663Z,3693.4
2023-04-24T07:33:24.314Z,3694.2
2023-04-24T07:38:59.778Z,3700.9
2023-04-24T07:44:37.106Z,3709.3
2023-04-24T07:50:12.850Z,3718.8
2023-04-24T07:55:49.058Z,3719.7
2023-04-24T08:01:24.736Z,3728.9
2023-04-24T08:07:00.060Z,3719.5
2023-04-24T08:12:36.271Z,3729.6
2023-04-24T08:18:12.945Z,3750.8
2023-04-24T08:23:48.727Z,3746
2023-04-24T08:29:25.486Z,3818.8
2023-04-24T08:35:02.480Z,3751.7
2023-04-24T08:40:39.397Z,3821.5
2023-04-24T08:46:15.261Z,3763.7
2023-04-24T08:52:12.613Z,3747
2023-04-24T08:57:45.831Z,3755.5
2023-04-24T09:03:23.447Z,3746
2023-04-24T09:09:00.086Z,3764.7
2023-04-24T09:14:35.634Z,3824.7
2023-04-24T09:20:11.686Z,3768.8
2023-04-24T09:25:47.496Z,3857.4
2023-04-24T09:31:23.865Z,3856.2
2023-04-24T09:37:00.850Z,3903.4
2023-04-24T09:42:36.049Z,3889.7
2023-04-24T09:48:12.715Z,3880.5
2023-04-24T09:54:10.594Z,3864.1
2023-04-24T09:59:46.179Z,3878.5
2023-04-24T10:05:22.465Z,3879.6
2023-04-24T10:10:59.179Z,3889.4
2023-04-24T10:16:36.300Z,3892.9
2023-04-24T10:22:11.677Z,3904.8
2023-04-24T10:27:47.090Z,3902.4
2023-04-24T10:33:22.351Z,3896.4
2023-04-24T10:38:57.540Z,3927.4
2023-04-24T10:44:32.846Z,3918
2023-04-24T10:50:09.206Z,3921.5
2023-04-24T10:55:44.929Z,3906.4
2023-04-24T11:01:20.465Z,3908.8
2023-04-24T11:06:58.048Z,3918
2023-04-24T11:12:33.315Z,3938.3
2023-04-24T11:18:10.156Z,3941.4
2023-04-24T11:23:46.103Z,3942.1
2023-04-24T11:29:27.861Z,3936.4
2023-04-24T11:35:03.953Z,3954.5
2023-04-24T11:40:42.626Z,3955.7
2023-04-24T11:46:19.116Z,3944.1
2023-04-24T11:52:15.978Z,3928.5
2023-04-24T11:57:50.334Z,3960.9
2023-04-24T12:03:27.743Z,3961.9
2023-04-24T12:09:19.669Z,3970.1
2023-04-24T12:14:57.205Z,3976.3
2023-04-24T12:20:35.523Z,3985.8
2023-04-24T12:26:10.922Z,3990.7
2023-04-24T12:31:47.803Z,3995.9
2023-04-24T12:37:24.391Z,4004.9
2023-04-24T12:43:07.861Z,3999.4
2023-04-24T12:48:46.398Z,4016
2023-04-24T12:54:23.911Z,4024.7
2023-04-24T12:59:59.784Z,4035.9
2023-04-24T13:05:35.577Z,4040.6
2023-04-24T13:11:12.013Z,4018.8
2023-04-24T13:16:48.066Z,4041.8
2023-04-24T13:22:23.940Z,4026.4
2023-04-24T13:27:58.966Z,3998.2
2023-04-24T13:33:34.293Z,3954.8
2023-04-24T13:39:09.539Z,3948.5
2023-04-24T13:44:44.523Z,3947.6
2023-04-24T13:50:20.417Z,3952.3
2023-04-24T13:55:57.675Z,3972.3
2023-04-24T14:01:34.254Z,3979.5
2023-04-24T14:07:09.966Z,3967.4
2023-04-24T14:12:47.019Z,3961.2
2023-04-24T14:18:22.038Z,3959
2023-04-24T14:23:57.662Z,3959
2023-04-24T14:29:37.424Z,4033.1
2023-04-24T14:35:15.018Z,3980.6
2023-04-24T14:41:15.101Z,3980.5
2023-04-24T14:46:51.489Z,3969.9
2023-04-24T14:52:49.344Z,3967.1
2023-04-24T14:58:23.237Z,3973.4
2023-04-24T15:04:02.415Z,3967.6
2023-04-24T15:09:39.552Z,3978.8
2023-04-24T15:15:17.065Z,3977.6
2023-04-24T15:20:53.282Z,3983.1
2023-04-24T15:26:30.137Z,4035.6
2023-04-24T15:32:11.276Z,4003.6
2023-04-24T15:37:47.052Z,3995.2
2023-04-24T15:43:23.126Z,3997.7
2023-04-24T15:48:58.133Z,3983.1
2023-04-24T15:54:33.767Z,3982.1
2023-04-24T16:00:09.799Z,3974.3
2023-04-24T16:05:47.476Z,3979.1
2023-04-24T16:11:22.822Z,3974.6
2023-04-24T16:16:58.357Z,3971.4
2023-04-24T16:22:33.580Z,3969.2
2023-04-24T16:28:10.278Z,3978.1
2023-04-24T16:33:47.262Z,3973.1
2023-04-24T16:39:22.209Z,3960
2023-04-24T16:44:59.134Z,3967.4
2023-04-24T16:50:34.363Z,3961.7
2023-04-24T16:56:10.065Z,3961.5
2023-04-24T17:01:45.221Z,3958.9
2023-04-24T17:07:20.236Z,3957
2023-04-24T17:12:55.802Z,3956.9
2023-04-24T17:18:31.122Z,3958
2023-04-24T17:24:06.018Z,3951.5
2023-04-24T17:29:45.172Z,3952.8
2023-04-24T17:35:25.091Z,3950.7
2023-04-24T17:41:02.042Z,3954
2023-04-24T17:46:39.375Z,3950.5
2023-04-24T17:52:15.167Z,3952.5
2023-04-24T17:57:50.607Z,3951
2023-04-24T18:03:28.038Z,3947.5
2023-04-24T18:09:04.771Z,3948.6
2023-04-24T18:14:40.395Z,3952.3
2023-04-24T18:20:16.391Z,3954.7
2023-04-24T18:25:53.077Z,3951
2023-04-24T18:31:28.672Z,3948
2023-04-24T18:37:04.710Z,3948.1
2023-04-24T18:42:41.021Z,3949.3
2023-04-24T18:48:17.791Z,3948.8
2023-04-24T18:53:53.266Z,3946.6
2023-04-24T18:59:32.492Z,3946.8
2023-04-24T19:05:09.014Z,3946.6
2023-04-24T19:10:44.390Z,3944.1
2023-04-24T19:16:21.109Z,3945.8
2023-04-24T19:21:57.320Z,3946.8
2023-04-24T19:27:32.521Z,3945.5
2023-04-24T19:33:08.700Z,3945.5
2023-04-24T19:38:44.094Z,3944.8
2023-04-24T19:44:19.434Z,3947
2023-04-24T19:49:56.292Z,3944.8
2023-04-24T19:55:33.491Z,3944.5
2023-04-24T20:01:13.336Z,3943.1
2023-04-24T20:06:49.142Z,3943.3
2023-04-24T20:12:24.599Z,3945.8
2023-04-24T20:18:00.838Z,3943.8
2023-04-24T20:23:36.644Z,3939.4
2023-04-24T20:29:12.984Z,3942.3
2023-04-24T20:34:50.119Z,3942.1
